createdAt,value
2023-02-25T00:02:23.346Z,75.51
2023-02-25T00:04:54.015Z,75.35
2023-02-25T00:07:24.945Z,75.43
2023-02-25T00:09:55.597Z,75.31
2023-02-25T00:12:27.750Z,75.08
2023-02-25T00:14:58.404Z,75.19
2023-02-25T00:17:29.318Z,75.36
2023-02-25T00:20:00.138Z,75.30
2023-02-25T00:22:30.826Z,75.44
2023-02-25T00:25:01.421Z,75.25
2023-02-25T00:27:32.256Z,75.36
2023-02-25T00:30:03.049Z,75.28
2023-02-25T00:32:33.915Z,75.49
2023-02-25T00:35:04.751Z,75.21
2023-02-25T00:37:35.425Z,75.03
2023-02-25T00:40:07.633Z,75.25
2023-02-25T00:42:38.226Z,75.08
2023-02-25T00:45:11.133Z,75.37
2023-02-25T00:47:41.822Z,75.60
2023-02-25T00:50:14.199Z,75.49
2023-02-25T00:52:44.867Z,75.51
2023-02-25T00:55:15.971Z,75.56
2023-02-25T00:57:46.639Z,75.43
2023-02-25T01:00:20.175Z,75.56
2023-02-25T01:02:50.883Z,75.41
2023-02-25T01:05:21.611Z,75.43
2023-02-25T01:07:52.277Z,75.20
2023-02-25T01:10:22.993Z,75.32
2023-02-25T01:12:59.842Z,75.21
2023-02-25T01:15:31.658Z,75.43
2023-02-25T01:18:02.484Z,75.35
2023-02-25T01:20:33.517Z,75.38
2023-02-25T01:23:02.579Z,75.46
2023-02-25T01:25:33.184Z,75.60
2023-02-25T01:28:04.044Z,75.31
2023-02-25T01:30:36.496Z,75.58
2023-02-25T01:33:07.315Z,75.29
2023-02-25T01:35:38.780Z,75.46
2023-02-25T01:38:09.428Z,75.54
2023-02-25T01:40:40.038Z,75.41
2023-02-25T01:43:15.737Z,75.43
2023-02-25T01:45:47.990Z,75.41
2023-02-25T01:48:22.497Z,75.55
2023-02-25T01:50:56.931Z,75.81
2023-02-25T01:53:30.826Z,75.85
2023-02-25T01:56:03.141Z,75.78
2023-02-25T01:58:34.457Z,76.01
2023-02-25T02:01:07.115Z,75.72
2023-02-25T02:03:39.235Z,75.93
2023-02-25T02:06:13.316Z,75.79
2023-02-25T02:08:45.897Z,76.00
2023-02-25T02:11:17.068Z,75.97
2023-02-25T02:13:48.313Z,76.02
2023-02-25T02:16:26.599Z,76.11
2023-02-25T02:18:59.899Z,76.35
2023-02-25T02:21:53.493Z,76.44
2023-02-25T02:24:53.017Z,76.42
2023-02-25T02:27:29.475Z,76.25
2023-02-25T02:30:32.319Z,76.52
2023-02-25T02:33:10.312Z,76.43
2023-02-25T02:35:49.107Z,76.46
2023-02-25T02:38:29.639Z,76.47
2023-02-25T02:41:07.551Z,76.64
2023-02-25T02:43:45.627Z,76.55
2023-02-25T02:46:21.527Z,76.70
2023-02-25T02:48:56.739Z,76.82
2023-02-25T02:51:34.362Z,77.04
2023-02-25T02:54:07.850Z,77.03
2023-02-25T02:56:42.389Z,77.19
2023-02-25T02:59:20.722Z,77.12
2023-02-25T03:01:55.207Z,77.16
2023-02-25T03:04:30.985Z,77.35
2023-02-25T03:07:07.998Z,77.18
2023-02-25T03:09:43.649Z,77.34
2023-02-25T03:12:14.406Z,77.31
2023-02-25T03:14:45.141Z,77.37
2023-02-25T03:17:19.099Z,77.52
2023-02-25T03:19:56.022Z,77.33
2023-02-25T03:22:31.865Z,77.66
2023-02-25T03:25:08.581Z,77.61
2023-02-25T03:27:41.988Z,77.79
2023-02-25T03:30:21.614Z,78.01
2023-02-25T03:32:56.769Z,78.08
2023-02-25T03:35:29.256Z,77.92
2023-02-25T03:38:02.540Z,77.94
2023-02-25T03:40:34.308Z,78.15
2023-02-25T03:43:10.196Z,78.08
2023-02-25T03:45:43.510Z,77.98
2023-02-25T03:48:16.723Z,77.97
2023-02-25T03:50:52.253Z,77.89
2023-02-25T03:53:23.256Z,77.78
2023-02-25T03:55:54.709Z,77.93
2023-02-25T03:58:25.505Z,77.81
2023-02-25T04:00:58.266Z,78.00
2023-02-25T04:03:29.183Z,77.98
2023-02-25T04:05:59.819Z,78.07
2023-02-25T04:08:30.583Z,77.99
2023-02-25T04:11:01.187Z,77.99
2023-02-25T04:13:31.860Z,78.10
2023-02-25T04:16:02.630Z,77.83
2023-02-25T04:18:33.252Z,77.97
2023-02-25T04:21:04.606Z,77.88
2023-02-25T04:23:35.692Z,77.96
2023-02-25T04:26:04.862Z,77.96
2023-02-25T04:28:35.543Z,77.97
2023-02-25T04:31:06.669Z,77.92
2023-02-25T04:33:36.400Z,77.84
2023-02-25T04:36:24.210Z,77.82
2023-02-25T04:38:55.781Z,77.94
2023-02-25T04:41:31.301Z,77.91
2023-02-25T04:44:02.657Z,77.97
2023-02-25T04:46:34.824Z,77.88
2023-02-25T04:49:06.199Z,77.99
2023-02-25T04:51:37.711Z,77.83
2023-02-25T04:54:08.530Z,77.95
2023-02-25T04:56:39.735Z,77.92
2023-02-25T04:59:10.930Z,77.87
2023-02-25T05:01:42.054Z,77.91
2023-02-25T05:04:11.166Z,78.13
2023-02-25T05:06:41.819Z,78.20
2023-02-25T05:09:12.493Z,78.29
2023-02-25T05:11:43.117Z,78.75
2023-02-25T05:14:13.847Z,78.36
2023-02-25T05:16:44.904Z,78.43
2023-02-25T05:19:16.464Z,78.55
2023-02-25T05:21:47.079Z,78.42
2023-02-25T05:24:17.736Z,78.81
2023-02-25T05:26:48.402Z,78.77
2023-02-25T05:29:19.156Z,78.73
2023-02-25T05:31:50.006Z,78.67
2023-02-25T05:34:20.796Z,78.77
2023-02-25T05:36:51.420Z,78.68
2023-02-25T05:39:22.423Z,78.78
2023-02-25T05:41:53.070Z,78.62
2023-02-25T05:44:23.672Z,78.70
2023-02-25T05:46:54.340Z,78.62
2023-02-25T05:49:25.124Z,78.63
2023-02-25T05:51:54.609Z,78.43
2023-02-25T05:54:33.778Z,78.53
2023-02-25T05:57:04.629Z,78.67
2023-02-25T05:59:35.382Z,78.66
2023-02-25T06:02:06.336Z,78.54
2023-02-25T06:04:37.013Z,78.47
2023-02-25T06:07:07.621Z,78.62
2023-02-25T06:09:38.356Z,78.72
2023-02-25T06:12:09.186Z,78.60
2023-02-25T06:14:39.866Z,78.57
2023-02-25T06:17:10.742Z,78.69
2023-02-25T06:19:41.423Z,78.35
2023-02-25T06:22:12.463Z,78.43
2023-02-25T06:24:41.691Z,78.10
2023-02-25T06:27:12.400Z,78.17
2023-02-25T06:29:43.146Z,78.36
2023-02-25T06:32:14.466Z,78.17
2023-02-25T06:34:45.555Z,78.19
2023-02-25T06:37:16.503Z,78.09
2023-02-25T06:39:47.399Z,77.96
2023-02-25T06:42:17.971Z,77.79
2023-02-25T06:44:48.708Z,77.72
2023-02-25T06:47:21.691Z,77.82
2023-02-25T06:49:52.409Z,77.76
2023-02-25T06:52:23.198Z,77.87
2023-02-25T06:54:53.892Z,78.12
2023-02-25T06:57:24.636Z,78.26
2023-02-25T06:59:55.452Z,78.58
2023-02-25T07:02:26.175Z,78.52
2023-02-25T07:04:56.990Z,78.77
2023-02-25T07:07:27.649Z,78.77
2023-02-25T07:10:00.936Z,78.53
2023-02-25T07:12:31.587Z,78.43
2023-02-25T07:15:02.358Z,78.33
2023-02-25T07:17:33.055Z,78.20
2023-02-25T07:20:03.937Z,77.85
2023-02-25T07:22:34.620Z,77.73
2023-02-25T07:25:06.696Z,77.80
2023-02-25T07:27:37.378Z,77.61
2023-02-25T07:30:11.270Z,77.56
2023-02-25T07:32:42.353Z,77.66
2023-02-25T07:35:12.072Z,77.63
2023-02-25T07:37:42.804Z,77.46
2023-02-25T07:40:15.016Z,77.45
2023-02-25T07:42:45.735Z,77.41
2023-02-25T07:45:16.696Z,77.20
2023-02-25T07:47:47.373Z,77.17
2023-02-25T07:50:17.928Z,77.04
2023-02-25T07:52:48.566Z,76.92
2023-02-25T07:55:19.455Z,77.06
2023-02-25T07:57:50.016Z,77.32
2023-02-25T08:00:28.911Z,76.86
2023-02-25T08:02:59.627Z,76.92
2023-02-25T08:05:34.985Z,77.17
2023-02-25T08:08:06.580Z,76.60
2023-02-25T08:10:37.996Z,76.48
2023-02-25T08:13:08.676Z,76.70
2023-02-25T08:15:43.469Z,76.40
2023-02-25T08:18:14.388Z,76.61
2023-02-25T08:20:48.226Z,76.31
2023-02-25T08:23:18.960Z,76.28
2023-02-25T08:25:54.452Z,76.37
2023-02-25T08:28:27.116Z,76.37
2023-02-25T08:30:58.015Z,76.19
2023-02-25T08:33:50.565Z,76.37
2023-02-25T08:36:20.952Z,76.19
2023-02-25T08:38:52.798Z,76.11
2023-02-25T08:41:24.580Z,76.00
2023-02-25T08:43:56.945Z,75.98
2023-02-25T08:46:29.754Z,76.15
2023-02-25T08:49:00.878Z,75.43
2023-02-25T08:51:32.385Z,75.82
2023-02-25T08:54:08.288Z,75.11
2023-02-25T08:56:39.866Z,74.97
2023-02-25T08:59:13.714Z,75.53
2023-02-25T09:01:44.691Z,75.73
2023-02-25T09:04:20.765Z,75.73
2023-02-25T09:06:52.117Z,75.05
2023-02-25T09:09:23.615Z,75.48
2023-02-25T09:11:54.776Z,75.26
2023-02-25T09:14:23.814Z,75.76
2023-02-25T09:16:54.589Z,76.20
2023-02-25T09:19:25.294Z,76.32
2023-02-25T09:21:55.965Z,76.41
2023-02-25T09:24:26.669Z,76.18
2023-02-25T09:26:57.322Z,76.12
2023-02-25T09:29:28.320Z,75.87
2023-02-25T09:31:59.612Z,75.71
2023-02-25T09:34:30.318Z,75.60
2023-02-25T09:37:01.308Z,75.80
2023-02-25T09:39:34.722Z,75.60
2023-02-25T09:42:27.616Z,75.97
2023-02-25T09:45:00.782Z,76.11
2023-02-25T09:47:40.181Z,76.06
2023-02-25T09:50:54.193Z,75.42
2023-02-25T09:53:17.539Z,75.35
2023-02-25T09:55:51.157Z,75.33
2023-02-25T09:58:30.661Z,75.23
2023-02-25T10:01:15.680Z,75.29
2023-02-25T10:03:56.996Z,75.29
2023-02-25T10:06:36.981Z,75.37
2023-02-25T10:09:17.489Z,75.61
2023-02-25T10:11:56.202Z,75.52
2023-02-25T10:14:42.961Z,75.26
2023-02-25T10:17:22.390Z,75.23
2023-02-25T10:20:17.830Z,75.31
2023-02-25T10:23:27.561Z,75.44
2023-02-25T10:26:03.065Z,74.94
2023-02-25T10:28:34.679Z,74.50
2023-02-25T10:31:08.291Z,74.98
2023-02-25T10:33:41.365Z,75.40
2023-02-25T10:36:18.421Z,75.39
2023-02-25T10:38:51.061Z,75.40
2023-02-25T10:41:25.794Z,75.32
2023-02-25T10:43:57.993Z,75.34
2023-02-25T10:46:34.558Z,75.28
2023-02-25T10:49:17.260Z,74.99
2023-02-25T10:52:11.257Z,75.13
2023-02-25T10:54:49.330Z,75.13
2023-02-25T10:57:26.213Z,74.67
2023-02-25T11:00:27.955Z,74.68
2023-02-25T11:03:04.030Z,75.31
2023-02-25T11:05:38.033Z,75.15
2023-02-25T11:08:27.337Z,74.59
2023-02-25T11:11:06.476Z,74.19
2023-02-25T11:13:37.756Z,74.31
2023-02-25T11:16:11.285Z,73.99
2023-02-25T11:18:42.320Z,74.37
2023-02-25T11:21:14.388Z,74.86
2023-02-25T11:23:49.186Z,74.76
2023-02-25T11:26:30.064Z,75.25
2023-02-25T11:29:05.154Z,75.32
2023-02-25T11:31:40.903Z,74.79
2023-02-25T11:34:20.930Z,74.39
2023-02-25T11:36:51.560Z,74.34
2023-02-25T11:39:24.650Z,74.40
2023-02-25T11:41:57.260Z,73.87
2023-02-25T11:44:30.506Z,73.52
2023-02-25T11:47:04.512Z,73.51
2023-02-25T11:50:20.247Z,72.74
2023-02-25T11:53:04.614Z,72.30
2023-02-25T11:55:50.528Z,72.57
2023-02-25T11:58:30.839Z,72.36
2023-02-25T12:01:07.531Z,72.34
2023-02-25T12:04:02.104Z,72.66
2023-02-25T12:06:49.109Z,72.38
2023-02-25T12:10:04.247Z,72.18
2023-02-25T12:13:14.499Z,72.71
2023-02-25T12:16:24.263Z,71.58
2023-02-25T12:19:20.975Z,72.00
2023-02-25T12:22:12.869Z,71.73
2023-02-25T12:25:16.297Z,71.93
2023-02-25T12:28:04.937Z,71.87
2023-02-25T12:31:02.820Z,70.86
2023-02-25T12:34:02.039Z,70.99
2023-02-25T12:36:49.659Z,72.01
2023-02-25T12:39:40.718Z,72.98
2023-02-25T12:42:26.846Z,73.04
2023-02-25T12:45:25.772Z,72.58
2023-02-25T12:48:12.621Z,72.81
2023-02-25T12:51:07.510Z,73.15
2023-02-25T12:53:52.820Z,73.40
2023-02-25T12:56:40.441Z,73.24
2023-02-25T12:59:44.020Z,73.64
2023-02-25T13:02:34.985Z,73.25
2023-02-25T13:05:23.153Z,72.67
2023-02-25T13:08:26.595Z,73.20
2023-02-25T13:11:08.222Z,73.56
2023-02-25T13:14:23.663Z,73.67
2023-02-25T13:17:20.439Z,73.68
2023-02-25T13:20:23.703Z,74.04
2023-02-25T13:23:03.427Z,73.17
2023-02-25T13:25:50.306Z,72.87
2023-02-25T13:28:35.694Z,72.62
2023-02-25T13:31:14.570Z,73.15
2023-02-25T13:33:59.895Z,73.72
2023-02-25T13:36:46.813Z,72.96
2023-02-25T13:39:34.779Z,73.01
2023-02-25T13:42:25.351Z,72.92
2023-02-25T13:45:28.986Z,72.15
2023-02-25T13:48:32.770Z,72.55
2023-02-25T13:51:16.948Z,72.91
2023-02-25T13:54:06.081Z,72.52
2023-02-25T13:56:56.231Z,72.64
2023-02-25T13:59:50.392Z,73.51
2023-02-25T14:02:44.434Z,73.22
2023-02-25T14:05:29.989Z,72.78
2023-02-25T14:08:42.384Z,72.98
2023-02-25T14:11:43.669Z,72.76
2023-02-25T14:14:42.824Z,72.94
2023-02-25T14:17:28.235Z,72.83
2023-02-25T14:20:17.010Z,73.10
2023-02-25T14:22:52.828Z,73.45
2023-02-25T14:25:38.113Z,73.33
2023-02-25T14:28:22.050Z,73.19
2023-02-25T14:31:06.499Z,73.80
2023-02-25T14:34:09.850Z,74.05
2023-02-25T14:36:59.060Z,73.91
2023-02-25T14:39:43.732Z,73.56
2023-02-25T14:42:28.333Z,73.61
2023-02-25T14:45:25.699Z,73.19
2023-02-25T14:48:03.597Z,73.40
2023-02-25T14:50:42.488Z,73.64
2023-02-25T14:54:04.859Z,73.51
2023-02-25T14:57:04.132Z,73.10
2023-02-25T15:00:02.665Z,73.62
2023-02-25T15:02:50.308Z,73.63
2023-02-25T15:05:43.991Z,73.88
2023-02-25T15:08:48.505Z,73.95
2023-02-25T15:11:45.107Z,73.91
2023-02-25T15:14:45.436Z,74.11
2023-02-25T15:17:45.435Z,74.50
2023-02-25T15:20:32.396Z,74.40
2023-02-25T15:23:11.187Z,74.37
2023-02-25T15:25:50.005Z,74.72
2023-02-25T15:28:45.953Z,74.39
2023-02-25T15:31:36.402Z,74.63
2023-02-25T15:34:43.960Z,74.36
2023-02-25T15:37:24.529Z,74.60
2023-02-25T15:39:57.171Z,74.62
2023-02-25T15:42:51.871Z,74.17
2023-02-25T15:45:41.458Z,74.21
2023-02-25T15:48:34.347Z,74.37
2023-02-25T15:51:12.026Z,74.64
2023-02-25T15:53:45.938Z,74.99
2023-02-25T15:56:50.119Z,75.03
2023-02-25T15:59:40.719Z,75.74
2023-02-25T16:02:48.290Z,75.64
2023-02-25T16:05:27.240Z,75.99
2023-02-25T16:08:12.633Z,76.20
2023-02-25T16:10:47.626Z,76.92
2023-02-25T16:13:25.955Z,77.14
2023-02-25T16:15:58.108Z,78.19
2023-02-25T16:18:34.792Z,77.74
2023-02-25T16:21:08.492Z,77.79
2023-02-25T16:23:43.063Z,78.00
2023-02-25T16:26:27.899Z,77.90
2023-02-25T16:29:12.496Z,77.74
2023-02-25T16:31:52.240Z,77.69
2023-02-25T16:34:30.093Z,77.29
2023-02-25T16:37:09.844Z,77.60
2023-02-25T16:39:40.737Z,77.69
2023-02-25T16:42:15.613Z,77.80
2023-02-25T16:44:55.838Z,78.16
2023-02-25T16:47:29.574Z,78.04
2023-02-25T16:50:03.368Z,78.04
2023-02-25T16:52:37.714Z,77.64
2023-02-25T16:55:16.648Z,78.01
2023-02-25T16:58:02.695Z,78.07
2023-02-25T17:00:33.965Z,77.90
2023-02-25T17:03:10.670Z,77.96
2023-02-25T17:05:41.760Z,78.01
2023-02-25T17:08:17.880Z,77.80
2023-02-25T17:11:02.104Z,77.71
2023-02-25T17:13:34.466Z,77.86
2023-02-25T17:16:14.347Z,77.37
2023-02-25T17:18:48.483Z,77.41
2023-02-25T17:21:24.345Z,77.32
2023-02-25T17:23:58.674Z,77.18
2023-02-25T17:26:30.666Z,77.15
2023-02-25T17:29:02.620Z,77.22
2023-02-25T17:31:45.087Z,77.05
2023-02-25T17:34:22.397Z,77.05
2023-02-25T17:36:54.268Z,77.10
2023-02-25T17:39:25.702Z,77.18
2023-02-25T17:41:56.939Z,77.00
2023-02-25T17:44:48.956Z,76.99
2023-02-25T17:47:24.861Z,77.14
2023-02-25T17:49:56.609Z,77.31
2023-02-25T17:52:33.511Z,77.28
2023-02-25T17:55:07.816Z,77.32
2023-02-25T17:57:43.058Z,77.22
2023-02-25T18:00:25.189Z,77.07
2023-02-25T18:03:16.719Z,76.93
2023-02-25T18:05:51.437Z,76.44
2023-02-25T18:08:26.390Z,76.22
2023-02-25T18:11:20.929Z,76.43
2023-02-25T18:13:51.974Z,76.60
2023-02-25T18:16:34.524Z,76.68
2023-02-25T18:19:11.469Z,76.95
2023-02-25T18:21:43.811Z,76.95
2023-02-25T18:24:26.655Z,76.86
2023-02-25T18:27:05.385Z,77.08
2023-02-25T18:29:36.491Z,77.03
2023-02-25T18:32:05.759Z,77.09
2023-02-25T18:34:36.572Z,76.89
2023-02-25T18:37:29.450Z,76.76
2023-02-25T18:40:00.339Z,76.78
2023-02-25T18:42:31.145Z,76.68
2023-02-25T18:45:05.673Z,76.73
2023-02-25T18:48:13.246Z,76.43
2023-02-25T18:50:44.138Z,76.45
2023-02-25T18:53:19.614Z,76.43
2023-02-25T18:55:51.479Z,76.21
2023-02-25T18:58:23.779Z,76.05
2023-02-25T19:00:58.569Z,76.03
2023-02-25T19:03:32.099Z,75.80
2023-02-25T19:06:02.953Z,75.96
2023-02-25T19:08:56.252Z,75.67
2023-02-25T19:11:34.395Z,75.42
2023-02-25T19:14:06.850Z,75.55
2023-02-25T19:16:37.683Z,75.54
2023-02-25T19:19:08.453Z,75.48
2023-02-25T19:21:39.212Z,75.32
2023-02-25T19:24:12.915Z,75.33
2023-02-25T19:26:43.709Z,75.37
2023-02-25T19:29:15.096Z,75.53
2023-02-25T19:31:47.441Z,75.56
2023-02-25T19:34:22.116Z,75.54
2023-02-25T19:36:52.847Z,75.59
2023-02-25T19:39:23.478Z,75.68
2023-02-25T19:41:54.117Z,75.75
2023-02-25T19:44:24.740Z,75.82
2023-02-25T19:46:55.574Z,75.89
2023-02-25T19:49:26.742Z,76.02
2023-02-25T19:51:56.440Z,76.15
2023-02-25T19:54:27.134Z,76.13
2023-02-25T19:56:58.238Z,76.34
2023-02-25T19:59:29.293Z,76.48
2023-02-25T20:02:00.113Z,76.26
2023-02-25T20:04:32.065Z,76.30
2023-02-25T20:07:02.810Z,76.44
2023-02-25T20:09:35.668Z,76.60
2023-02-25T20:12:25.308Z,76.60
2023-02-25T20:14:58.710Z,76.69
2023-02-25T20:17:29.403Z,76.59
2023-02-25T20:20:00.491Z,76.58
2023-02-25T20:22:29.611Z,76.81
2023-02-25T20:25:00.484Z,76.63
2023-02-25T20:27:31.191Z,76.55
2023-02-25T20:30:01.933Z,76.60
2023-02-25T20:32:32.657Z,76.78
2023-02-25T20:35:04.404Z,76.81
2023-02-25T20:37:39.163Z,76.70
2023-02-25T20:40:12.403Z,76.75
2023-02-25T20:42:43.454Z,77.18
2023-02-25T20:45:18.214Z,77.04
2023-02-25T20:47:49.499Z,76.83
2023-02-25T20:50:26.957Z,76.84
2023-02-25T20:53:05.416Z,77.07
2023-02-25T20:55:36.131Z,77.01
2023-02-25T20:58:06.871Z,77.03
2023-02-25T21:00:37.529Z,77.05
2023-02-25T21:03:08.262Z,76.90
2023-02-25T21:05:38.966Z,76.87
2023-02-25T21:08:12.549Z,77.03
2023-02-25T21:10:43.329Z,76.84
2023-02-25T21:13:15.651Z,76.87
2023-02-25T21:15:51.814Z,77.07
2023-02-25T21:18:22.557Z,76.68
2023-02-25T21:20:58.159Z,76.95
2023-02-25T21:23:29.183Z,77.03
2023-02-25T21:26:06.414Z,76.92
2023-02-25T21:28:41.915Z,76.96
2023-02-25T21:31:14.508Z,76.91
2023-02-25T21:33:45.369Z,77.04
2023-02-25T21:36:19.051Z,76.97
2023-02-25T21:38:49.849Z,77.14
2023-02-25T21:41:20.627Z,77.10
2023-02-25T21:43:54.169Z,77.05
2023-02-25T21:46:25.177Z,77.22
2023-02-25T21:48:55.030Z,77.09
2023-02-25T21:51:28.034Z,77.19
2023-02-25T21:54:00.513Z,77.14
2023-02-25T21:56:32.086Z,77.22
2023-02-25T21:59:08.663Z,77.39
2023-02-25T22:01:41.374Z,77.35
2023-02-25T22:04:12.381Z,77.37
2023-02-25T22:06:46.282Z,77.28
2023-02-25T22:09:17.478Z,77.42
2023-02-25T22:11:46.554Z,77.23
2023-02-25T22:14:17.363Z,77.29
2023-02-25T22:16:48.637Z,77.27
2023-02-25T22:19:39.281Z,77.00
2023-02-25T22:22:10.296Z,76.94
2023-02-25T22:24:41.375Z,77.13
2023-02-25T22:27:10.419Z,77.16
2023-02-25T22:29:41.052Z,77.13
2023-02-25T22:32:11.882Z,77.39
2023-02-25T22:34:43.117Z,77.22
2023-02-25T22:37:13.814Z,77.29
2023-02-25T22:39:44.554Z,77.37
2023-02-25T22:42:15.261Z,77.38
2023-02-25T22:44:45.988Z,77.56
2023-02-25T22:47:17.153Z,77.29
2023-02-25T22:49:47.942Z,77.24
2023-02-25T22:52:18.849Z,77.20
2023-02-25T22:54:49.480Z,77.10
2023-02-25T22:57:20.129Z,77.26
2023-02-25T22:59:50.888Z,76.92
2023-02-25T23:02:21.547Z,77.12
2023-02-25T23:04:52.302Z,77.04
2023-02-25T23:18:59.642Z,76.87
2023-02-25T23:21:37.784Z,77.09
2023-02-25T23:24:11.135Z,77.04
2023-02-25T23:26:43.023Z,76.92
2023-02-25T23:29:13.975Z,77.05
2023-02-25T23:31:45.980Z,77.01
2023-02-25T23:34:19.776Z,76.97
2023-02-25T23:36:50.955Z,76.93
2023-02-25T23:39:19.948Z,76.82
2023-02-25T23:41:50.601Z,76.90
2023-02-25T23:44:21.257Z,76.98
2023-02-25T23:46:52.003Z,76.96
2023-02-25T23:49:22.590Z,76.98
2023-02-25T23:51:53.263Z,77.00
2023-02-25T23:54:23.916Z,77.00
2023-02-25T23:56:54.610Z,76.94
2023-02-25T23:59:25.206Z,77.17
